气象报文与情报通波
气象报文机场: ZSPD
ADDS - METARS form results

(1055 UTC 18 November 2019)
数据来源 http://aviationweather.gov/metar/data/
 
METAR text: ZSPD 181030Z 34007MPS 9999 FEW033 10/03 Q1027 NOSIG
Conditions at: ZSPD (SHANGHAI/PUDONG , CN) observed 1030 UTC 18 November 2019
Temperature: 10.0°C (50°F)
Dewpoint: 3.0°C (37°F) [RH = 62%]
Pressure (altimeter): 30.32 inches Hg (1027.0 mb)
Winds: from the NNW (340 degrees) at 16 MPH (14 knots; 7.2 m/s)
Visibility: 6 or more miles (10+ km)
Ceiling: at least 12,000 feet AGL
Clouds: few clouds at 3300 feet AGL
Weather: no significant weather observed at this time

METAR text: ZSPD 181000Z 34007MPS 9999 SCT033 10/04 Q1027 NOSIG
Conditions at: ZSPD (SHANGHAI/PUDONG , CN) observed 1000 UTC 18 November 2019
Temperature: 10.0°C (50°F)
Dewpoint: 4.0°C (39°F) [RH = 66%]
Pressure (altimeter): 30.32 inches Hg (1027.0 mb)
Winds: from the NNW (340 degrees) at 16 MPH (14 knots; 7.2 m/s)
Visibility: 6 or more miles (10+ km)
Ceiling: at least 12,000 feet AGL
Clouds: scattered clouds at 3300 feet AGL
Weather: no significant weather observed at this time

Forecast for: ZSPD (SHANGHAI/PUDONG , CN)
Text: TAF ZSPD 180917Z 1812/1912 36006G12MPS 6000 BKN016 TX14/1906Z TN04/1821Z
Forecast period: 1200 UTC 18 November 2019 to 1200 UTC 19 November 2019
Forecast type: FROM: standard forecast or significant change
Winds: from the N (360 degrees) at 14 MPH (12 knots; 6.2 m/s)
gusting to 26 MPH (23 knots; 11.8 m/s)
Visibility: 4 miles (6 km)
Ceiling: 1600 feet AGL
Clouds: broken clouds at 1600 feet AGL
Weather: no significant weather forecast for this period

 机场地图

 跑道信息
跑道 16 跑道长度 12467 ft 跑道宽度 197 ft
跑道标高 13 ft 跑道內移距离 0 ft 跑道磁航向 162
跑道 34 跑道长度 12467 ft 跑道宽度 197 ft
跑道标高 13 ft 跑道內移距离 0 ft 跑道磁航向 342
跑道 17 跑道长度 13123 ft 跑道宽度 197 ft
跑道标高 10 ft 跑道內移距离 0 ft 跑道磁航向 162
跑道 35 跑道长度 13123 ft 跑道宽度 197 ft
跑道标高 10 ft 跑道內移距离 0 ft 跑道磁航向 342

 机场频率
类型 APP 名称 SHANGHAI A 频率 119.75 MHZ
类型 APP 名称 SHANGHAI A 频率 120.3 MHZ
类型 APP 名称 SHAINGHAI 频率 121.3 MHZ
类型 APP 名称 SHANGHAI A 频率 123.8 MHZ
类型 ATIS 名称 ATIS 频率 127.85 MHZ
类型 CLD 名称 DEL 频率 121.95 MHZ
类型 GND 名称 GND WEST 频率 121.65 MHZ
类型 GND 名称 GND EAST 频率 121.8 MHZ
类型 TWR 名称 TWR EAST 频率 118.4 MHZ
类型 TWR 名称 TWR WEST 频率 118.8 MHZ

 机场附近导航设备
类型 VOR-DME 名称 Hengsha 频率 114400 KHZ
类型 VOR-DME 名称 Nanhui 频率 114600 KHZ
类型 VOR-DME 名称 Liuzao 频率 109400 KHZ
类型 VOR-DME 名称 Pudong 频率 116900 KHZ
类型 VOR-DME 名称 Shuyuan 频率 113600 KHZ



© FlySim.cn中国最大航空飞行视频网版权所有